createdAt,value
2018-10-05T00:00:10.505Z,102002.59
2018-10-05T00:02:37.645Z,102003.93
2018-10-05T00:05:04.869Z,102007.89
2018-10-05T00:07:31.996Z,102007.88
2018-10-05T00:09:59.152Z,102003.94
2018-10-05T00:12:26.332Z,102005.25
2018-10-05T00:14:53.499Z,102005.70
2018-10-05T00:17:20.649Z,101998.23
2018-10-05T00:19:48.137Z,102000.00
2018-10-05T00:22:15.275Z,102001.32
2018-10-05T00:24:42.424Z,101989.49
2018-10-05T00:27:09.760Z,101993.88
2018-10-05T00:29:36.873Z,101994.30
2018-10-05T00:32:04.010Z,101996.50
2018-10-05T00:34:31.180Z,101990.78
2018-10-05T00:36:58.304Z,101989.94
2018-10-05T00:39:25.476Z,101992.55
2018-10-05T00:41:52.645Z,101994.74
2018-10-05T00:44:19.841Z,101988.61
2018-10-05T00:46:46.977Z,101985.13
2018-10-05T00:49:14.187Z,101993.41
2018-10-05T00:51:41.341Z,101984.67
2018-10-05T00:54:08.484Z,101990.36
2018-10-05T00:56:35.660Z,101983.75
2018-10-05T00:59:02.767Z,101980.25
2018-10-05T01:01:29.910Z,101974.59
2018-10-05T01:03:57.104Z,101971.52
2018-10-05T01:06:24.233Z,101968.41
2018-10-05T01:08:51.401Z,101973.24
2018-10-05T01:11:18.682Z,101965.76
2018-10-05T01:13:45.837Z,101964.45
2018-10-05T01:16:12.953Z,101966.61
2018-10-05T01:18:40.141Z,101966.58
2018-10-05T01:21:07.340Z,101968.77
2018-10-05T01:23:34.468Z,101966.58
2018-10-05T01:26:01.652Z,101958.72
2018-10-05T01:28:28.852Z,101958.28
2018-10-05T01:30:55.972Z,101966.58
2018-10-05T01:33:23.347Z,101960.47
2018-10-05T01:35:50.495Z,101960.91
2018-10-05T01:38:17.633Z,101959.63
2018-10-05T01:40:44.848Z,101959.59
2018-10-05T01:43:12.029Z,101950.41
2018-10-05T01:45:39.197Z,101960.09
2018-10-05T01:48:06.388Z,101956.58
2018-10-05T01:50:33.536Z,101953.52
2018-10-05T01:53:00.667Z,101950.44
2018-10-05T01:55:27.920Z,101956.58
2018-10-05T01:57:55.050Z,101947.81
2018-10-05T02:00:22.192Z,101949.17
2018-10-05T02:02:49.373Z,101944.31
2018-10-05T02:05:16.493Z,101943.02
2018-10-05T02:07:43.615Z,101947.85
2018-10-05T02:10:10.824Z,101946.55
2018-10-05T02:12:37.940Z,101944.81
2018-10-05T02:15:05.241Z,101943.92
2018-10-05T02:17:32.400Z,101940.86
2018-10-05T02:19:59.515Z,101951.81
2018-10-05T02:22:26.695Z,101944.34
2018-10-05T02:24:53.860Z,101936.47
2018-10-05T02:27:21.054Z,101936.88
2018-10-05T02:29:48.150Z,101935.98
2018-10-05T02:32:15.337Z,101932.94
2018-10-05T02:34:42.477Z,101936.41
2018-10-05T02:37:09.635Z,101938.58
2018-10-05T02:39:36.820Z,101941.65
2018-10-05T02:42:03.970Z,101936.75
2018-10-05T02:44:31.157Z,101936.75
2018-10-05T02:46:58.340Z,101932.77
2018-10-05T02:49:25.456Z,101924.39
2018-10-05T02:51:52.589Z,101928.78
2018-10-05T02:54:19.808Z,101931.45
2018-10-05T02:56:46.978Z,101924.83
2018-10-05T02:59:14.129Z,101925.27
2018-10-05T03:01:52.758Z,101922.59
2018-10-05T03:04:19.867Z,101917.77
2018-10-05T03:06:47.003Z,101919.95
2018-10-05T03:09:14.188Z,101918.20
2018-10-05T03:11:41.320Z,101916.45
2018-10-05T03:14:08.457Z,101918.20
2018-10-05T03:16:35.641Z,101920.78
2018-10-05T03:19:02.748Z,101918.59
2018-10-05T03:21:29.890Z,101915.91
2018-10-05T03:23:57.125Z,101921.61
2018-10-05T03:26:24.260Z,101918.48
2018-10-05T03:28:51.376Z,101916.72
2018-10-05T03:31:18.569Z,101917.16
2018-10-05T03:33:45.760Z,101914.52
2018-10-05T03:36:12.892Z,101918.48
2018-10-05T03:38:40.072Z,101909.25
2018-10-05T03:41:07.207Z,101911.87
2018-10-05T03:43:34.345Z,101905.30
2018-10-05T03:46:01.520Z,101896.91
2018-10-05T03:48:28.655Z,101897.78
2018-10-05T03:50:55.784Z,101893.40
2018-10-05T03:53:22.956Z,101886.80
2018-10-05T03:55:50.081Z,101890.31
2018-10-05T03:58:17.213Z,101881.52
2018-10-05T04:00:44.413Z,101880.22
2018-10-05T04:03:11.545Z,101869.23
2018-10-05T04:05:38.677Z,101866.17
2018-10-05T04:08:05.883Z,101870.55
2018-10-05T04:10:33.013Z,101863.04
2018-10-05T04:13:00.174Z,101859.14
2018-10-05T04:15:27.399Z,101861.25
2018-10-05T04:17:54.921Z,101855.56
2018-10-05T04:20:22.060Z,101858.18
2018-10-05T04:22:49.266Z,101855.48
2018-10-05T04:25:16.444Z,101866.91
2018-10-05T04:27:43.565Z,101867.67
2018-10-05T04:30:10.785Z,101874.62
2018-10-05T04:32:44.584Z,101880.34
2018-10-05T04:35:11.765Z,101888.70
2018-10-05T04:37:38.889Z,101891.35
2018-10-05T04:40:06.053Z,101882.62
2018-10-05T04:42:33.238Z,101884.37
2018-10-05T04:45:00.462Z,101892.71
2018-10-05T04:47:27.592Z,101893.60
2018-10-05T04:49:54.789Z,101897.50
2018-10-05T04:52:23.127Z,101903.20
2018-10-05T04:54:50.285Z,101894.33
2018-10-05T04:57:17.441Z,101897.98
2018-10-05T04:59:44.570Z,101903.73
2018-10-05T05:02:11.721Z,101908.55
2018-10-05T05:04:38.939Z,101908.19
2018-10-05T05:07:06.501Z,101916.52
2018-10-05T05:09:34.703Z,101915.27
2018-10-05T05:12:02.057Z,101910.39
2018-10-05T05:14:29.134Z,101908.67
2018-10-05T05:16:56.265Z,101904.30
2018-10-05T05:19:23.527Z,101903.92
2018-10-05T05:21:50.665Z,101910.52
2018-10-05T05:24:17.796Z,101908.77
2018-10-05T05:26:45.101Z,101909.24
2018-10-05T05:29:12.216Z,101914.95
2018-10-05T05:31:40.258Z,101915.34
2018-10-05T05:34:07.564Z,101925.89
2018-10-05T05:36:34.619Z,101920.22
2018-10-05T05:39:01.720Z,101921.94
2018-10-05T05:41:28.944Z,101926.30
2018-10-05T05:43:56.069Z,101933.77
2018-10-05T05:46:23.190Z,101919.73
2018-10-05T05:48:50.320Z,101925.87
2018-10-05T05:51:17.465Z,101924.98
2018-10-05T05:53:45.121Z,101930.20
2018-10-05T05:56:12.274Z,101931.03
2018-10-05T05:58:39.399Z,101931.45
2018-10-05T06:01:07.506Z,101932.33
2018-10-05T06:03:35.445Z,101933.64
2018-10-05T06:06:02.665Z,101943.25
2018-10-05T06:08:29.809Z,101939.28
2018-10-05T06:10:57.392Z,101934.84
2018-10-05T06:13:28.097Z,101940.11
2018-10-05T06:15:55.989Z,101943.62
2018-10-05T06:18:23.124Z,101939.27
2018-10-05T06:20:50.240Z,101942.75
2018-10-05T06:23:17.335Z,101934.38
2018-10-05T06:25:44.497Z,101933.06
2018-10-05T06:28:11.641Z,101935.26
2018-10-05T06:30:38.866Z,101933.93
2018-10-05T06:33:06.093Z,101932.17
2018-10-05T06:35:33.194Z,101945.31
2018-10-05T06:38:00.332Z,101935.14
2018-10-05T06:40:27.456Z,101931.44
2018-10-05T06:42:54.564Z,101939.21
2018-10-05T06:45:21.668Z,101937.88
2018-10-05T06:47:48.870Z,101942.27
2018-10-05T06:50:16.041Z,101939.88
2018-10-05T06:52:43.141Z,101946.34
2018-10-05T06:55:10.287Z,101940.48
2018-10-05T06:57:37.411Z,101942.27
2018-10-05T07:00:04.896Z,101946.41
2018-10-05T07:02:32.040Z,101954.73
2018-10-05T07:04:59.135Z,101950.70
2018-10-05T07:07:26.251Z,101957.24
2018-10-05T07:09:53.409Z,101951.86
2018-10-05T07:12:20.512Z,101957.01
2018-10-05T07:14:47.617Z,101961.39
2018-10-05T07:17:14.784Z,101950.95
2018-10-05T07:19:41.888Z,101951.39
2018-10-05T07:22:08.989Z,101949.69
2018-10-05T07:24:36.149Z,101950.69
2018-10-05T07:27:03.284Z,101957.22
2018-10-05T07:29:30.440Z,101951.66
2018-10-05T07:31:57.605Z,101948.55
2018-10-05T07:34:24.804Z,101942.23
2018-10-05T07:36:51.980Z,101947.16
2018-10-05T07:39:19.132Z,101942.16
2018-10-05T07:41:46.232Z,101948.52
2018-10-05T07:44:13.387Z,101945.77
2018-10-05T07:46:40.617Z,101939.95
2018-10-05T07:49:07.723Z,101944.91
2018-10-05T07:51:34.914Z,101942.30
2018-10-05T07:54:02.072Z,101941.06
2018-10-05T07:56:29.239Z,101944.80
2018-10-05T07:58:56.388Z,101944.91
2018-10-05T08:01:23.577Z,101947.95
2018-10-05T08:03:50.677Z,101939.58
2018-10-05T08:06:17.773Z,101938.98
2018-10-05T08:08:44.920Z,101947.08
2018-10-05T08:11:12.036Z,101942.20
2018-10-05T08:13:39.154Z,101945.30
2018-10-05T08:16:06.444Z,101935.72
2018-10-05T08:18:33.539Z,101926.62
2018-10-05T08:21:00.644Z,101934.81
2018-10-05T08:23:27.928Z,101926.94
2018-10-05T08:25:55.245Z,101925.42
2018-10-05T08:28:22.370Z,101925.95
2018-10-05T08:30:49.573Z,101913.91
2018-10-05T08:33:16.685Z,101913.97
2018-10-05T08:35:45.120Z,101910.30
2018-10-05T08:38:12.327Z,101911.16
2018-10-05T08:40:39.631Z,101903.96
2018-10-05T08:43:06.753Z,101909.80
2018-10-05T08:45:33.938Z,101902.94
2018-10-05T08:48:01.013Z,101899.27
2018-10-05T08:50:28.166Z,101899.60
2018-10-05T08:52:55.324Z,101896.14
2018-10-05T08:55:22.430Z,101892.20
2018-10-05T08:57:49.532Z,101890.03
2018-10-05T09:00:16.736Z,101885.13
2018-10-05T09:02:43.825Z,101893.16
2018-10-05T09:05:10.915Z,101890.69
2018-10-05T09:07:39.182Z,101881.87
2018-10-05T09:10:06.721Z,101883.48
2018-10-05T09:12:33.818Z,101885.76
2018-10-05T09:15:01.072Z,101879.36
2018-10-05T09:17:28.232Z,101881.05
2018-10-05T09:19:55.327Z,101878.27
2018-10-05T09:22:23.196Z,101872.27
2018-10-05T09:24:50.407Z,101866.86
2018-10-05T09:27:17.529Z,101865.13
2018-10-05T09:29:44.674Z,101867.85
2018-10-05T09:32:11.827Z,101871.33
2018-10-05T09:34:38.930Z,101863.58
2018-10-05T09:37:06.121Z,101860.25
2018-10-05T09:39:33.255Z,101860.28
2018-10-05T09:42:00.373Z,101862.31
2018-10-05T09:44:27.550Z,101861.98
2018-10-05T09:46:54.656Z,101861.33
2018-10-05T09:49:21.776Z,101855.42
2018-10-05T09:51:48.986Z,101848.09
2018-10-05T09:54:16.089Z,101853.68
2018-10-05T09:56:43.205Z,101852.14
2018-10-05T09:59:10.360Z,101828.08
2018-10-05T10:01:43.354Z,101835.83
2018-10-05T10:04:10.487Z,101834.06
2018-10-05T10:06:37.647Z,101833.56
2018-10-05T10:09:06.889Z,101825.69
2018-10-05T10:11:34.038Z,101820.98
2018-10-05T10:14:01.360Z,101823.52
2018-10-05T10:16:28.469Z,101815.28
2018-10-05T10:18:55.644Z,101812.13
2018-10-05T10:21:22.735Z,101810.68
2018-10-05T10:23:49.839Z,101805.26
2018-10-05T10:26:17.046Z,101796.12
2018-10-05T10:28:44.292Z,101795.81
2018-10-05T10:31:11.296Z,101786.94
2018-10-05T10:33:38.526Z,101789.36
2018-10-05T10:36:05.834Z,101792.14
2018-10-05T10:38:32.951Z,101783.66
2018-10-05T10:41:00.165Z,101782.27
2018-10-05T10:43:27.324Z,101776.81
2018-10-05T10:45:54.453Z,101771.47
2018-10-05T10:48:21.727Z,101771.58
2018-10-05T10:50:48.821Z,101765.37
2018-10-05T10:53:15.926Z,101759.60
2018-10-05T10:55:43.098Z,101756.28
2018-10-05T10:58:10.247Z,101754.63
2018-10-05T11:00:37.456Z,101756.66
2018-10-05T11:03:04.629Z,101755.03
2018-10-05T11:05:31.881Z,101747.16
2018-10-05T11:07:59.070Z,101749.02
2018-10-05T11:10:26.244Z,101741.52
2018-10-05T11:12:53.385Z,101742.81
2018-10-05T11:15:20.501Z,101743.22
2018-10-05T11:17:47.944Z,101733.52
2018-10-05T11:20:15.089Z,101727.91
2018-10-05T11:22:42.220Z,101727.73
2018-10-05T11:25:09.422Z,101726.97
2018-10-05T11:27:37.116Z,101718.37
2018-10-05T11:30:04.851Z,101719.25
2018-10-05T11:32:32.029Z,101708.14
2018-10-05T11:34:59.382Z,101711.42
2018-10-05T11:37:26.485Z,101702.46
2018-10-05T11:39:53.772Z,101691.46
2018-10-05T11:42:20.943Z,101691.23
2018-10-05T11:44:48.129Z,101681.03
2018-10-05T11:47:15.409Z,101680.30
2018-10-05T11:49:42.581Z,101674.66
2018-10-05T11:52:09.771Z,101670.49
2018-10-05T11:54:36.985Z,101667.16
2018-10-05T11:57:04.144Z,101660.87
2018-10-05T11:59:31.302Z,101667.21
2018-10-05T12:01:58.544Z,101653.14
2018-10-05T12:04:25.681Z,101654.19
2018-10-05T12:06:52.836Z,101656.77
2018-10-05T12:09:20.036Z,101654.06
2018-10-05T12:11:47.287Z,101648.91
2018-10-05T12:14:14.508Z,101641.09
2018-10-05T12:16:41.708Z,101647.86
2018-10-05T12:19:08.868Z,101644.73
2018-10-05T12:21:36.116Z,101644.25
2018-10-05T12:24:03.305Z,101640.80
2018-10-05T12:26:30.652Z,101637.33
2018-10-05T12:28:57.777Z,101640.17
2018-10-05T12:31:25.144Z,101633.42
2018-10-05T12:33:52.320Z,101626.48
2018-10-05T12:36:19.626Z,101626.94
2018-10-05T12:38:47.042Z,101623.43
2018-10-05T12:41:14.257Z,101616.71
2018-10-05T12:43:41.678Z,101613.52
2018-10-05T12:46:09.189Z,101612.33
2018-10-05T12:48:36.353Z,101613.91
2018-10-05T12:51:03.481Z,101610.05
2018-10-05T12:53:30.837Z,101614.59
2018-10-05T12:55:57.973Z,101612.46
2018-10-05T12:58:25.096Z,101606.70
2018-10-05T13:00:52.276Z,101594.70
2018-10-05T13:03:19.421Z,101594.21
2018-10-05T13:05:46.546Z,101590.91
2018-10-05T13:08:13.709Z,101589.19
2018-10-05T13:10:40.873Z,101593.23
2018-10-05T13:13:08.180Z,101581.03
2018-10-05T13:15:35.725Z,101580.23
2018-10-05T13:18:02.885Z,101576.94
2018-10-05T13:20:30.017Z,101571.17
2018-10-05T13:22:57.665Z,101573.14
2018-10-05T13:25:25.041Z,101572.17
2018-10-05T13:27:52.176Z,101572.07
2018-10-05T13:30:19.340Z,101565.93
2018-10-05T13:32:46.465Z,101574.11
2018-10-05T13:35:13.679Z,101569.97
2018-10-05T13:37:40.899Z,101560.06
2018-10-05T13:40:08.051Z,101562.56
2018-10-05T13:42:35.192Z,101560.42
2018-10-05T13:45:02.374Z,101557.45
2018-10-05T13:47:29.543Z,101556.29
2018-10-05T13:49:56.789Z,101545.61
2018-10-05T13:52:23.932Z,101546.61
2018-10-05T13:54:51.059Z,101544.50
2018-10-05T13:57:18.174Z,101539.00
2018-10-05T13:59:45.399Z,101535.40
2018-10-05T14:02:12.611Z,101523.16
2018-10-05T14:04:39.842Z,101525.47
2018-10-05T14:07:07.217Z,101522.89
2018-10-05T14:09:34.349Z,101520.48
2018-10-05T14:12:01.560Z,101517.42
2018-10-05T14:14:28.818Z,101515.98
2018-10-05T14:16:56.276Z,101517.84
2018-10-05T14:19:23.419Z,101512.98
2018-10-05T14:21:50.653Z,101507.42
2018-10-05T14:24:17.785Z,101505.81
2018-10-05T14:26:44.945Z,101502.02
2018-10-05T14:29:12.181Z,101502.69
2018-10-05T14:31:39.429Z,101504.52
2018-10-05T14:34:06.586Z,101501.20
2018-10-05T14:36:33.805Z,101500.73
2018-10-05T14:39:01.142Z,101499.07
2018-10-05T14:41:28.348Z,101497.63
2018-10-05T14:43:55.534Z,101495.66
2018-10-05T14:46:22.677Z,101490.34
2018-10-05T14:48:49.851Z,101480.48
2018-10-05T14:51:17.010Z,101481.08
2018-10-05T14:53:44.229Z,101475.21
2018-10-05T14:56:11.352Z,101470.41
2018-10-05T14:58:38.583Z,101469.20
2018-10-05T15:01:05.737Z,101468.45
2018-10-05T15:03:32.880Z,101460.55
2018-10-05T15:06:00.081Z,101466.16
2018-10-05T15:08:27.209Z,101458.98
2018-10-05T15:10:54.361Z,101460.69
2018-10-05T15:13:21.649Z,101452.11
2018-10-05T15:15:48.753Z,101452.11
2018-10-05T15:18:15.914Z,101447.59
2018-10-05T15:20:43.146Z,101444.80
2018-10-05T15:23:10.353Z,101449.14
2018-10-05T15:25:37.476Z,101444.13
2018-10-05T15:28:04.700Z,101441.40
2018-10-05T15:30:31.828Z,101443.19
2018-10-05T15:32:59.028Z,101441.14
2018-10-05T15:35:26.284Z,101433.48
2018-10-05T15:37:53.401Z,101428.28
2018-10-05T15:40:20.551Z,101430.69
2018-10-05T15:42:47.736Z,101427.34
2018-10-05T15:45:14.902Z,101423.39
2018-10-05T15:47:42.060Z,101428.17
2018-10-05T15:50:09.226Z,101424.27
2018-10-05T15:52:36.317Z,101425.45
2018-10-05T15:55:03.423Z,101420.59
2018-10-05T15:57:30.581Z,101423.71
2018-10-05T15:59:57.680Z,101423.40
2018-10-05T16:02:24.808Z,101420.84
2018-10-05T16:04:52.092Z,101422.50
2018-10-05T16:07:19.228Z,101420.31
2018-10-05T16:09:46.340Z,101420.11
2018-10-05T16:12:13.559Z,101415.05
2018-10-05T16:14:40.707Z,101414.59
2018-10-05T16:17:07.841Z,101411.64
2018-10-05T16:19:35.033Z,101409.48
2018-10-05T16:22:02.178Z,101406.66
2018-10-05T16:24:32.268Z,101408.45
2018-10-05T16:26:59.455Z,101406.91
2018-10-05T16:29:26.614Z,101405.28
2018-10-05T16:31:53.725Z,101402.10
2018-10-05T16:34:21.045Z,101399.36
2018-10-05T16:36:48.187Z,101396.97
2018-10-05T16:39:15.347Z,101395.80
2018-10-05T16:41:42.636Z,101398.14
2018-10-05T16:44:09.828Z,101397.36
2018-10-05T16:46:37.657Z,101396.94
2018-10-05T16:49:05.393Z,101387.25
2018-10-05T16:51:32.488Z,101389.08
2018-10-05T16:53:59.719Z,101377.25
2018-10-05T16:56:26.872Z,101382.52
2018-10-05T16:58:54.005Z,101385.98
2018-10-05T17:01:21.114Z,101381.05
2018-10-05T17:03:48.412Z,101383.12
2018-10-05T17:06:15.598Z,101380.72
2018-10-05T17:08:46.072Z,101385.86
2018-10-05T17:11:13.327Z,101384.02
2018-10-05T17:13:40.486Z,101378.12
2018-10-05T17:16:07.676Z,101380.58
2018-10-05T17:18:34.842Z,101374.67
2018-10-05T17:21:01.945Z,101364.75
2018-10-05T17:23:29.073Z,101362.33
2018-10-05T17:25:56.291Z,101360.31
2018-10-05T17:28:23.409Z,101371.97
2018-10-05T17:30:50.537Z,101359.84
2018-10-05T17:33:17.711Z,101356.96
2018-10-05T17:35:44.833Z,101354.95
2018-10-05T17:38:11.948Z,101361.27
2018-10-05T17:40:39.178Z,101353.97
2018-10-05T17:43:06.346Z,101351.50
2018-10-05T17:45:33.472Z,101352.55
2018-10-05T17:48:00.624Z,101353.98
2018-10-05T17:50:27.827Z,101359.41
2018-10-05T17:52:55.057Z,101348.52
2018-10-05T17:55:22.416Z,101350.41
2018-10-05T17:57:49.477Z,101346.53
2018-10-05T18:00:16.603Z,101344.42
2018-10-05T18:02:43.956Z,101346.14
2018-10-05T18:05:11.124Z,101340.12
2018-10-05T18:07:38.260Z,101335.27
2018-10-05T18:10:05.656Z,101332.68
2018-10-05T18:12:32.737Z,101322.63
2018-10-05T18:14:59.841Z,101325.19
2018-10-05T18:17:27.185Z,101317.28
2018-10-05T18:19:54.396Z,101322.13
2018-10-05T18:22:21.492Z,101326.20
2018-10-05T18:24:48.828Z,101320.05
2018-10-05T18:27:15.976Z,101317.02
2018-10-05T18:29:43.177Z,101321.02
2018-10-05T18:32:10.416Z,101317.19
2018-10-05T18:34:37.536Z,101315.47
2018-10-05T18:37:04.629Z,101310.59
2018-10-05T18:39:31.780Z,101311.02
2018-10-05T18:41:58.918Z,101308.84
2018-10-05T18:44:26.056Z,101301.27
2018-10-05T18:46:53.250Z,101308.79
2018-10-05T18:49:20.354Z,101303.14
2018-10-05T18:51:47.460Z,101301.44
2018-10-05T18:54:14.825Z,101295.41
2018-10-05T18:56:53.565Z,101298.19
2018-10-05T18:59:20.708Z,101293.94
2018-10-05T19:01:47.821Z,101296.66
2018-10-05T19:04:14.908Z,101302.52
2018-10-05T19:06:42.098Z,101299.58
2018-10-05T19:09:09.220Z,101293.88
2018-10-05T19:11:36.984Z,101291.83
2018-10-05T19:14:04.219Z,101288.34
2018-10-05T19:16:31.340Z,101295.01
2018-10-05T19:18:58.451Z,101295.50
2018-10-05T19:21:25.580Z,101289.43
2018-10-05T19:23:52.676Z,101288.14
2018-10-05T19:26:19.946Z,101285.08
2018-10-05T19:28:48.315Z,101280.12
2018-10-05T19:31:15.424Z,101283.31
2018-10-05T19:33:42.544Z,101281.13
2018-10-05T19:36:09.713Z,101273.80
2018-10-05T19:38:36.906Z,101267.92
2018-10-05T19:41:04.004Z,101271.31
2018-10-05T19:43:31.157Z,101269.56
2018-10-05T19:45:58.300Z,101264.99
2018-10-05T19:48:25.535Z,101262.69
2018-10-05T19:50:52.744Z,101257.80
2018-10-05T19:53:19.897Z,101251.80
2018-10-05T19:55:47.043Z,101250.84
2018-10-05T19:58:14.204Z,101247.39
2018-10-05T20:00:41.328Z,101238.72
2018-10-05T20:03:08.432Z,101236.70
2018-10-05T20:05:35.573Z,101231.17
2018-10-05T20:08:02.697Z,101227.22
2018-10-05T20:10:29.848Z,101232.61
2018-10-05T20:12:57.088Z,101231.30
2018-10-05T20:15:24.255Z,101239.23
2018-10-05T20:17:51.456Z,101228.82
2018-10-05T20:20:18.467Z,101233.70
2018-10-05T20:22:45.577Z,101229.01
2018-10-05T20:25:12.689Z,101218.98
2018-10-05T20:27:39.840Z,101224.36
2018-10-05T20:30:07.517Z,101221.38
2018-10-05T20:32:34.637Z,101223.65
2018-10-05T20:35:02.565Z,101222.36
2018-10-05T20:37:29.812Z,101205.65
2018-10-05T20:39:56.777Z,101200.72
2018-10-05T20:42:23.956Z,101197.74
2018-10-05T20:44:51.203Z,101196.53
2018-10-05T20:47:18.375Z,101192.28
2018-10-05T20:49:45.587Z,101200.27
2018-10-05T20:52:12.688Z,101191.31
2018-10-05T20:54:39.781Z,101199.91
2018-10-05T20:57:13.704Z,101200.41
2018-10-05T20:59:40.799Z,101197.67
2018-10-05T21:02:07.892Z,101194.77
2018-10-05T21:04:35.124Z,101195.38
2018-10-05T21:07:02.222Z,101197.24
2018-10-05T21:09:29.316Z,101193.53
2018-10-05T21:11:56.441Z,101195.05
2018-10-05T21:14:23.636Z,101193.48
2018-10-05T21:16:50.733Z,101191.02
2018-10-05T21:19:17.865Z,101185.33
2018-10-05T21:21:44.969Z,101183.23
2018-10-05T21:24:12.107Z,101183.25
2018-10-05T21:26:39.245Z,101184.27
2018-10-05T21:29:07.081Z,101180.45
2018-10-05T21:31:34.196Z,101179.77
2018-10-05T21:34:01.341Z,101177.23
2018-10-05T21:36:28.441Z,101172.04
2018-10-05T21:38:55.516Z,101163.81
2018-10-05T21:41:22.660Z,101164.33
2018-10-05T21:43:49.840Z,101159.96
2018-10-05T21:46:16.952Z,101157.45
2018-10-05T21:48:44.132Z,101147.05
2018-10-05T21:51:11.360Z,101148.78
2018-10-05T21:53:38.465Z,101147.15
2018-10-05T21:56:05.809Z,101150.22
2018-10-05T21:58:32.899Z,101139.83
2018-10-05T22:00:59.987Z,101143.22
2018-10-05T22:03:29.728Z,101142.78
2018-10-05T22:05:56.835Z,101138.91
2018-10-05T22:08:23.923Z,101141.47
2018-10-05T22:10:51.128Z,101138.81
2018-10-05T22:13:18.208Z,101137.08
2018-10-05T22:15:45.332Z,101134.55
2018-10-05T22:18:12.497Z,101125.39
2018-10-05T22:20:39.589Z,101125.03
2018-10-05T22:23:06.701Z,101124.19
2018-10-05T22:25:33.852Z,101125.13
2018-10-05T22:28:00.945Z,101117.28
2018-10-05T22:30:28.091Z,101127.41
2018-10-05T22:32:55.312Z,101126.55
2018-10-05T22:35:22.416Z,101124.37
2018-10-05T22:37:49.511Z,101125.22
2018-10-05T22:40:16.725Z,101118.59
2018-10-05T22:42:43.816Z,101111.92
2018-10-05T22:45:10.907Z,101109.20
2018-10-05T22:47:38.065Z,101109.62
2018-10-05T22:50:05.265Z,101104.73
2018-10-05T22:52:32.368Z,101108.14
2018-10-05T22:54:59.525Z,101108.13
2018-10-05T22:57:26.615Z,101105.50
2018-10-05T22:59:53.954Z,101102.87
2018-10-05T23:02:22.101Z,101099.78
2018-10-05T23:04:49.960Z,101098.83
2018-10-05T23:07:17.395Z,101104.83
2018-10-05T23:09:45.135Z,101098.59
2018-10-05T23:12:12.429Z,101094.19
2018-10-05T23:14:40.500Z,101101.09
2018-10-05T23:17:07.777Z,101094.09
2018-10-05T23:19:35.137Z,101091.00
2018-10-05T23:22:02.617Z,101083.48
2018-10-05T23:24:30.104Z,101079.81
2018-10-05T23:26:57.312Z,101082.30
2018-10-05T23:29:25.491Z,101086.15
2018-10-05T23:31:53.538Z,101089.72
2018-10-05T23:34:21.104Z,101088.42
2018-10-05T23:36:48.929Z,101085.28
2018-10-05T23:39:16.638Z,101078.67
2018-10-05T23:41:44.267Z,101075.00
2018-10-05T23:44:12.433Z,101077.18
2018-10-05T23:46:39.700Z,101073.12
2018-10-05T23:49:07.485Z,101080.14
2018-10-05T23:51:34.652Z,101064.35
2018-10-05T23:54:01.783Z,101067.85
2018-10-05T23:56:28.891Z,101074.46
2018-10-05T23:58:56.134Z,101071.94
